Time;durP1;ratioP1;P1;durP2;ratioP2;P2;SDS_P1;SDS_P2;PMS_P1;PMS_P2;Temp;Humidity;BMP_temperature;BMP_pressure;BME280_temperature;BME280_humidity;BME280_pressure;Samples;Min_cycle;Max_cycle;Signal;HPM_P1;HPM_P2
2021/10/03 00:01:57;;;;;;;17.87;15.87;;;15.30;1.00;;;;;;5111551;27;20447;-76
2021/10/03 00:04:27;;;;;;;17.53;15.63;;;15.30;1.00;;;;;;5111293;27;21271;-76
2021/10/03 00:06:55;;;;;;;16.87;15.10;;;15.30;1.00;;;;;;5113679;27;21312;-76
2021/10/03 00:09:22;;;;;;;16.87;15.17;;;15.30;1.00;;;;;;5112765;27;20852;-76
2021/10/03 00:11:51;;;;;;;19.50;17.50;;;15.30;1.00;;;;;;5097393;27;20450;-76
2021/10/03 00:14:19;;;;;;;17.27;15.60;;;15.30;1.00;;;;;;5116355;27;20450;-76
2021/10/03 00:16:47;;;;;;;17.50;15.70;;;15.30;1.00;;;;;;5122730;27;20457;-76
2021/10/03 00:19:15;;;;;;;18.17;16.40;;;15.30;1.00;;;;;;5109027;27;20452;-76
2021/10/03 00:21:43;;;;;;;17.73;15.20;;;15.40;1.00;;;;;;5114797;27;20572;-76
2021/10/03 00:24:12;;;;;;;16.87;15.27;;;15.40;1.00;;;;;;5111740;27;20436;-76
2021/10/03 00:26:39;;;;;;;17.53;15.77;;;15.40;1.00;;;;;;5110127;27;20946;-76
2021/10/03 00:29:06;;;;;;;16.27;14.67;;;15.40;1.00;;;;;;5114048;27;20475;-77
2021/10/03 00:31:33;;;;;;;16.70;15.10;;;15.40;1.00;;;;;;5112227;27;21148;-77
2021/10/03 00:34:00;;;;;;;18.80;16.90;;;15.40;1.00;;;;;;5113779;27;20443;-77
2021/10/03 00:36:26;;;;;;;17.23;15.10;;;15.40;1.00;;;;;;5097022;27;20419;-77
2021/10/03 00:38:54;;;;;;;17.20;15.27;;;15.40;1.00;;;;;;5114867;27;20434;-77
2021/10/03 00:41:21;;;;;;;17.37;15.67;;;15.50;1.00;;;;;;5109115;27;20458;-77
2021/10/03 00:43:48;;;;;;;18.47;16.67;;;15.40;1.00;;;;;;5108639;27;20446;-77
2021/10/03 00:46:15;;;;;;;16.60;15.00;;;15.50;1.00;;;;;;5105782;27;20482;-77
2021/10/03 00:48:42;;;;;;;18.23;16.37;;;15.50;1.00;;;;;;5106721;27;20447;-76
2021/10/03 00:51:09;;;;;;;16.00;14.30;;;15.50;1.00;;;;;;5109471;27;20457;-76
2021/10/03 00:53:35;;;;;;;18.27;16.40;;;15.40;1.00;;;;;;5087391;27;20500;-77
2021/10/03 00:56:04;;;;;;;15.90;14.30;;;15.40;1.00;;;;;;5116166;27;20403;-76
2021/10/03 00:58:31;;;;;;;17.50;15.70;;;15.40;1.00;;;;;;5120399;27;20445;-76
2021/10/03 01:00:57;;;;;;;18.73;14.47;;;15.40;1.00;;;;;;5114199;27;20458;-77
2021/10/03 01:03:24;;;;;;;16.53;14.90;;;15.40;1.00;;;;;;5108815;27;20453;-76
2021/10/03 01:05:51;;;;;;;16.30;14.73;;;15.40;1.00;;;;;;5117112;27;20471;-77
2021/10/03 01:08:18;;;;;;;16.90;15.07;;;15.40;1.00;;;;;;5099436;27;20992;-75
2021/10/03 01:10:45;;;;;;;17.50;15.77;;;15.40;1.00;;;;;;5110637;27;20461;-76
2021/10/03 01:13:13;;;;;;;16.47;14.73;;;15.30;1.00;;;;;;5109151;27;20430;-76
2021/10/03 01:15:42;;;;;;;15.13;13.70;;;15.30;1.00;;;;;;5111270;27;20481;-76
2021/10/03 01:18:10;;;;;;;15.87;14.23;;;15.30;1.00;;;;;;5108690;27;20450;-77
2021/10/03 01:20:38;;;;;;;15.80;14.20;;;15.20;1.00;;;;;;5117619;27;20463;-77
2021/10/03 01:23:07;;;;;;;15.63;14.03;;;15.20;1.00;;;;;;5111872;27;21382;-76
2021/10/03 01:25:37;;;;;;;18.33;16.63;;;15.20;1.00;;;;;;5113891;27;20443;-77
2021/10/03 01:28:05;;;;;;;15.87;14.27;;;15.20;1.00;;;;;;5112331;27;20438;-77
2021/10/03 01:30:33;;;;;;;16.20;14.50;;;15.10;1.00;;;;;;5118879;27;20519;-77
2021/10/03 01:33:00;;;;;;;16.80;13.93;;;15.10;1.00;;;;;;5115210;27;20460;-77
2021/10/03 01:35:27;;;;;;;15.13;13.63;;;15.10;1.00;;;;;;5117895;27;20450;-77
2021/10/03 01:37:54;;;;;;;14.57;13.13;;;15.10;1.00;;;;;;5095990;27;20568;-77
2021/10/03 01:40:23;;;;;;;14.80;13.40;;;15.10;1.00;;;;;;5115734;27;20449;-77
2021/10/03 01:42:52;;;;;;;15.63;14.03;;;15.10;1.00;;;;;;5113804;27;20445;-76
2021/10/03 01:45:21;;;;;;;14.93;13.50;;;15.10;1.00;;;;;;5119501;27;20438;-76
2021/10/03 01:48:06;;;;;;;13.43;12.10;;;15.10;1.00;;;;;;5118093;27;20456;-76
2021/10/03 01:50:34;;;;;;;14.70;13.30;;;15.10;1.00;;;;;;5117308;27;20483;-76
2021/10/03 01:53:01;;;;;;;13.50;12.20;;;15.10;1.00;;;;;;5112800;27;20428;-76
2021/10/03 01:55:29;;;;;;;14.70;13.30;;;15.10;1.00;;;;;;5115324;27;21024;-76
2021/10/03 01:57:56;;;;;;;16.47;13.40;;;15.10;1.00;;;;;;5112961;27;20485;-77
2021/10/03 02:00:23;;;;;;;15.80;12.80;;;15.10;1.00;;;;;;5111049;27;20443;-76
2021/10/03 02:02:59;;;;;;;14.27;12.87;;;15.10;1.00;;;;;;5093047;27;20434;-76
2021/10/03 02:05:26;;;;;;;13.70;12.30;;;15.00;1.00;;;;;;5113001;27;20444;-77
2021/10/03 02:07:53;;;;;;;13.60;12.30;;;15.00;1.00;;;;;;5113731;27;20543;-76
2021/10/03 02:10:21;;;;;;;13.13;11.93;;;15.00;1.00;;;;;;5111174;27;20477;-76
2021/10/03 02:12:50;;;;;;;14.27;12.87;;;15.00;1.00;;;;;;5125581;27;20442;-76
2021/10/03 02:15:17;;;;;;;14.50;13.20;;;15.00;1.00;;;;;;5116451;27;20470;-76
2021/10/03 02:17:44;;;;;;;15.20;13.60;;;15.00;1.00;;;;;;5109587;27;20475;-76
2021/10/03 02:20:10;;;;;;;16.03;12.83;;;15.00;1.00;;;;;;5108811;27;20450;-76
2021/10/03 02:22:38;;;;;;;14.83;13.43;;;14.90;1.00;;;;;;5109445;27;20411;-76
2021/10/03 02:25:06;;;;;;;14.20;12.80;;;14.90;1.00;;;;;;5108307;27;20480;-77
2021/10/03 02:27:33;;;;;;;14.40;12.90;;;14.90;1.00;;;;;;5107754;27;20443;-76
2021/10/03 02:30:01;;;;;;;14.87;13.40;;;14.90;1.00;;;;;;5107815;27;20479;-77
2021/10/03 02:32:28;;;;;;;15.13;13.77;;;14.80;1.00;;;;;;5111356;27;20463;-75
2021/10/03 02:34:55;;;;;;;14.40;12.90;;;14.80;1.00;;;;;;5106389;27;20466;-75
2021/10/03 02:37:22;;;;;;;14.83;13.30;;;14.80;1.00;;;;;;5111604;27;20893;-76
2021/10/03 02:39:49;;;;;;;14.83;13.10;;;14.80;1.00;;;;;;5104572;27;20457;-76
2021/10/03 02:42:16;;;;;;;15.77;13.30;;;14.80;1.00;;;;;;5108611;27;20461;-76
2021/10/03 02:44:43;;;;;;;15.50;14.00;;;14.80;1.00;;;;;;5086406;27;20442;-75
2021/10/03 02:47:12;;;;;;;13.73;12.43;;;14.80;1.00;;;;;;5107146;27;20453;-75
2021/10/03 02:49:40;;;;;;;15.60;13.10;;;14.70;1.00;;;;;;5109255;27;20514;-75
2021/10/03 02:52:08;;;;;;;12.80;11.60;;;14.70;1.00;;;;;;5115213;27;20425;-75
2021/10/03 02:54:35;;;;;;;14.10;12.70;;;14.80;1.00;;;;;;5110177;27;20473;-76
2021/10/03 02:57:02;;;;;;;13.80;12.47;;;14.70;1.00;;;;;;5110489;27;20450;-75
2021/10/03 02:59:29;;;;;;;14.20;12.70;;;14.70;1.00;;;;;;5104716;27;20480;-75
2021/10/03 03:01:55;;;;;;;15.37;13.50;;;14.70;1.00;;;;;;5107951;27;20441;-76
2021/10/03 03:04:23;;;;;;;14.47;13.17;;;14.70;1.00;;;;;;5085642;27;20469;-76
2021/10/03 03:06:50;;;;;;;14.13;12.60;;;14.70;1.00;;;;;;5107846;27;20455;-76
2021/10/03 03:09:17;;;;;;;14.80;13.43;;;14.60;1.00;;;;;;5106419;27;20458;-76
2021/10/03 03:11:44;;;;;;;15.00;13.10;;;14.60;1.00;;;;;;5111322;27;20438;-76
2021/10/03 03:14:11;;;;;;;13.87;12.57;;;14.60;1.00;;;;;;5106820;27;20453;-76
2021/10/03 03:16:43;;;;;;;12.77;11.57;;;14.60;1.00;;;;;;5110282;27;20438;-76
2021/10/03 03:19:11;;;;;;;14.63;12.70;;;14.50;1.00;;;;;;5106854;27;20454;-76
2021/10/03 03:21:40;;;;;;;13.33;11.70;;;14.50;1.00;;;;;;5106963;27;21953;-76
2021/10/03 03:24:07;;;;;;;15.00;13.30;;;14.50;1.00;;;;;;5112106;27;20466;-76
2021/10/03 03:26:34;;;;;;;13.60;12.30;;;14.60;1.00;;;;;;5103898;27;20464;-76
2021/10/03 03:29:01;;;;;;;14.53;13.07;;;14.60;1.00;;;;;;5111464;27;20460;-76
2021/10/03 03:31:28;;;;;;;14.00;12.60;;;14.60;1.00;;;;;;5088009;27;20455;-76
2021/10/03 03:33:55;;;;;;;13.43;12.13;;;14.60;1.00;;;;;;5113773;27;20461;-76
2021/10/03 03:36:22;;;;;;;15.73;14.23;;;14.60;1.00;;;;;;5114192;27;20493;-76
2021/10/03 03:38:50;;;;;;;13.00;11.60;;;14.70;1.00;;;;;;5110295;27;21018;-76
2021/10/03 03:41:16;;;;;;;14.63;13.23;;;14.70;1.00;;;;;;5103544;27;20446;-75
2021/10/03 03:43:44;;;;;;;14.50;13.07;;;14.70;1.00;;;;;;5112529;27;21213;-75
2021/10/03 03:46:11;;;;;;;16.33;12.63;;;14.70;1.00;;;;;;5107302;27;20464;-75
2021/10/03 03:48:37;;;;;;;12.77;11.50;;;14.70;1.00;;;;;;5114161;27;20447;-75
2021/10/03 03:51:04;;;;;;;13.60;12.30;;;14.70;1.00;;;;;;5104742;27;20461;-76
2021/10/03 03:53:32;;;;;;;13.73;12.43;;;14.70;1.00;;;;;;5107021;27;20524;-76
2021/10/03 03:56:00;;;;;;;14.57;12.53;;;14.70;1.00;;;;;;5107940;27;20481;-75
2021/10/03 03:58:26;;;;;;;13.00;11.70;;;14.70;1.00;;;;;;5109060;27;21194;-75
2021/10/03 04:00:53;;;;;;;20.17;13.00;;;14.60;1.00;;;;;;5111569;27;20445;-76
2021/10/03 04:03:20;;;;;;;13.30;11.93;;;14.60;1.00;;;;;;5103950;27;20441;-76
2021/10/03 04:05:46;;;;;;;15.90;12.17;;;14.60;1.00;;;;;;5103915;27;21679;-76
2021/10/03 04:08:13;;;;;;;13.97;12.53;;;14.60;1.00;;;;;;5095814;27;22194;-76
2021/10/03 04:10:40;;;;;;;12.87;11.33;;;14.60;1.00;;;;;;5100701;27;20468;-76
2021/10/03 04:13:08;;;;;;;12.77;11.47;;;14.60;1.00;;;;;;5105905;27;21368;-77
2021/10/03 04:15:34;;;;;;;13.50;12.20;;;14.60;1.00;;;;;;5109436;27;20473;-77
2021/10/03 04:18:01;;;;;;;14.77;12.40;;;14.60;1.00;;;;;;5106069;27;20603;-76
2021/10/03 04:20:28;;;;;;;13.30;12.00;;;14.60;1.00;;;;;;5103103;27;20441;-76
2021/10/03 04:22:54;;;;;;;14.27;12.97;;;14.60;1.00;;;;;;5110292;27;20452;-77
2021/10/03 04:25:21;;;;;;;14.83;13.37;;;14.60;1.00;;;;;;5109662;27;20472;-76
2021/10/03 04:27:48;;;;;;;14.43;12.57;;;14.50;1.00;;;;;;5108243;27;20466;-76
2021/10/03 04:30:16;;;;;;;13.87;12.47;;;14.50;1.00;;;;;;5108772;27;20448;-77
2021/10/03 04:32:42;;;;;;;14.80;13.30;;;14.50;1.00;;;;;;5105254;27;20436;-76
2021/10/03 04:35:09;;;;;;;14.67;13.03;;;14.50;1.00;;;;;;5102520;27;20420;-76
2021/10/03 04:37:36;;;;;;;14.20;12.80;;;14.50;1.00;;;;;;5116466;27;20449;-76
2021/10/03 04:40:03;;;;;;;15.23;12.33;;;14.50;1.00;;;;;;5116552;27;23409;-77
2021/10/03 04:42:30;;;;;;;13.80;12.17;;;14.50;1.00;;;;;;5108450;27;22256;-76
2021/10/03 04:44:57;;;;;;;14.10;12.70;;;14.50;1.00;;;;;;5108048;27;20454;-76
2021/10/03 04:47:25;;;;;;;15.90;13.87;;;14.50;1.00;;;;;;5108587;27;20461;-76
2021/10/03 04:49:53;;;;;;;13.73;12.47;;;14.60;1.00;;;;;;5106464;27;20470;-75
2021/10/03 04:52:20;;;;;;;15.20;13.17;;;14.60;1.00;;;;;;5110568;27;20501;-76
2021/10/03 04:54:47;;;;;;;14.10;12.80;;;14.60;1.00;;;;;;5109047;27;20462;-75
2021/10/03 04:57:14;;;;;;;13.97;12.67;;;14.60;1.00;;;;;;5112253;27;20453;-75
2021/10/03 04:59:40;;;;;;;15.13;12.77;;;14.60;1.00;;;;;;5111207;27;21216;-76
2021/10/03 05:02:07;;;;;;;13.03;11.73;;;14.60;1.00;;;;;;5106847;27;20519;-75
2021/10/03 05:04:35;;;;;;;14.00;12.70;;;14.70;1.00;;;;;;5108637;27;20457;-75
2021/10/03 05:07:02;;;;;;;13.63;12.33;;;14.60;1.00;;;;;;5109611;27;20455;-75
2021/10/03 05:09:28;;;;;;;14.97;13.37;;;14.70;1.00;;;;;;5113532;27;20500;-76
2021/10/03 05:11:55;;;;;;;15.10;12.63;;;14.70;1.00;;;;;;5123534;27;20448;-76
2021/10/03 05:14:22;;;;;;;14.37;13.10;;;14.70;1.00;;;;;;5123443;27;20453;-75
2021/10/03 05:16:48;;;;;;;13.73;12.43;;;14.60;1.00;;;;;;5101335;27;20533;-77
2021/10/03 05:19:15;;;;;;;15.23;13.63;;;14.70;1.00;;;;;;5100882;27;20441;-78
2021/10/03 05:21:43;;;;;;;14.20;12.63;;;14.70;1.00;;;;;;5100157;27;20478;-77
2021/10/03 05:24:10;;;;;;;13.97;12.67;;;14.70;1.00;;;;;;5091046;27;21654;-78
2021/10/03 05:26:37;;;;;;;15.10;13.50;;;14.70;1.00;;;;;;5106685;27;20452;-78
2021/10/03 05:29:04;;;;;;;14.30;12.83;;;14.80;1.00;;;;;;5106630;27;20446;-78
2021/10/03 05:31:31;;;;;;;14.80;12.70;;;14.80;1.00;;;;;;5111034;27;20476;-79
2021/10/03 05:33:58;;;;;;;15.50;13.90;;;14.80;1.00;;;;;;5107361;27;20464;-77
2021/10/03 05:36:25;;;;;;;15.50;12.87;;;14.80;1.00;;;;;;5114130;27;20461;-79
2021/10/03 05:38:56;;;;;;;15.20;13.67;;;14.90;1.00;;;;;;5111913;27;21136;-79
2021/10/03 05:41:24;;;;;;;14.70;13.17;;;14.90;1.00;;;;;;5113068;27;20409;-77
2021/10/03 05:43:50;;;;;;;15.13;13.73;;;14.90;1.00;;;;;;5110058;27;20453;-78
2021/10/03 05:46:17;;;;;;;14.60;12.67;;;14.90;1.00;;;;;;5115596;27;20446;-77
2021/10/03 05:48:44;;;;;;;15.70;14.03;;;14.90;1.00;;;;;;5119080;27;20449;-79
2021/10/03 05:51:11;;;;;;;14.30;12.90;;;14.90;1.00;;;;;;5117510;27;20501;-81
2021/10/03 05:53:38;;;;;;;15.93;13.93;;;15.00;1.00;;;;;;5118031;27;21265;-78
2021/10/03 05:56:06;;;;;;;16.77;15.13;;;15.10;1.00;;;;;;5113676;27;20445;-77
2021/10/03 05:58:34;;;;;;;14.83;13.20;;;15.10;1.00;;;;;;5117544;27;21077;-77
2021/10/03 06:01:01;;;;;;;14.80;13.40;;;15.10;1.00;;;;;;5125027;27;20455;-78
2021/10/03 06:03:28;;;;;;;15.17;13.67;;;15.20;1.00;;;;;;5120997;27;20465;-77
2021/10/03 06:05:54;;;;;;;14.67;13.37;;;15.10;1.00;;;;;;5114603;27;20456;-77
2021/10/03 06:08:21;;;;;;;14.90;13.50;;;15.10;1.00;;;;;;5110746;27;20434;-77
2021/10/03 06:10:48;;;;;;;15.50;13.83;;;15.10;1.00;;;;;;5118364;27;20449;-77
2021/10/03 06:13:16;;;;;;;14.83;13.43;;;15.10;1.00;;;;;;5094726;27;20465;-78
2021/10/03 06:15:43;;;;;;;14.57;13.17;;;15.10;1.00;;;;;;5117925;27;20466;-79
2021/10/03 06:18:11;;;;;;;14.87;13.37;;;15.00;1.00;;;;;;5119182;27;20438;-78
2021/10/03 06:20:39;;;;;;;15.17;13.67;;;15.10;1.00;;;;;;5120647;27;20487;-78
2021/10/03 06:23:06;;;;;;;15.60;14.00;;;15.00;1.00;;;;;;5128394;27;20458;-78
2021/10/03 06:25:33;;;;;;;15.23;13.93;;;15.10;1.00;;;;;;5118879;27;20473;-77
2021/10/03 06:28:00;;;;;;;15.20;13.77;;;15.10;1.00;;;;;;5121742;27;20450;-77
2021/10/03 06:30:28;;;;;;;15.43;13.87;;;15.10;1.00;;;;;;5126405;27;21357;-77
2021/10/03 06:32:56;;;;;;;14.53;13.17;;;15.10;1.00;;;;;;5124099;27;20438;-78
2021/10/03 06:35:23;;;;;;;13.97;12.67;;;15.10;1.00;;;;;;5124038;27;20468;-77
2021/10/03 06:37:49;;;;;;;15.47;13.97;;;15.20;1.00;;;;;;5125547;27;20573;-78
2021/10/03 06:40:18;;;;;;;17.10;14.43;;;15.20;1.00;;;;;;5123273;27;20732;-78
2021/10/03 06:42:45;;;;;;;14.97;13.37;;;15.30;1.00;;;;;;5125098;27;20567;-77
2021/10/03 06:45:12;;;;;;;16.73;14.27;;;15.30;1.00;;;;;;5106730;27;20426;-78
2021/10/03 06:47:40;;;;;;;15.57;13.93;;;15.40;1.00;;;;;;5114902;27;21622;-79
2021/10/03 06:50:07;;;;;;;15.63;14.13;;;15.50;1.00;;;;;;5120861;27;20454;-77
2021/10/03 06:52:34;;;;;;;16.90;14.77;;;15.50;1.00;;;;;;5119677;27;20466;-79
2021/10/03 06:55:01;;;;;;;16.70;13.40;;;15.50;1.00;;;;;;5118894;27;20601;-78
2021/10/03 06:57:27;;;;;;;15.47;13.87;;;15.50;1.00;;;;;;5101060;27;20486;-77
2021/10/03 06:59:54;;;;;;;14.80;13.20;;;15.60;1.00;;;;;;5118580;27;21283;-77
2021/10/03 07:02:23;;;;;;;16.40;14.73;;;15.60;1.00;;;;;;5112907;27;20815;-76
2021/10/03 07:04:53;;;;;;;15.93;14.13;;;15.60;1.00;;;;;;5108505;27;20941;-77
2021/10/03 07:07:20;;;;;;;14.73;13.33;;;15.70;1.00;;;;;;5104596;27;20453;-77
2021/10/03 07:09:47;;;;;;;14.47;13.07;;;15.70;1.00;;;;;;5109227;27;20469;-77
2021/10/03 07:12:14;;;;;;;15.47;13.63;;;15.80;1.00;;;;;;5111428;27;20478;-76
2021/10/03 07:14:43;;;;;;;15.03;13.53;;;15.80;1.00;;;;;;5105297;27;21831;-75
2021/10/03 07:17:10;;;;;;;15.00;13.57;;;15.90;1.00;;;;;;5110739;27;20430;-77
2021/10/03 07:19:37;;;;;;;16.03;14.33;;;15.80;1.00;;;;;;5107760;27;20454;-77
2021/10/03 07:22:07;;;;;;;14.97;13.67;;;15.90;1.00;;;;;;5109144;27;20837;-77
2021/10/03 07:24:34;;;;;;;14.07;12.63;;;15.90;1.00;;;;;;5117040;27;21709;-77
2021/10/03 07:27:02;;;;;;;14.93;13.43;;;15.90;1.00;;;;;;5112390;27;21228;-77
2021/10/03 07:29:28;;;;;;;14.30;13.00;;;15.90;1.00;;;;;;5115452;27;21976;-78
2021/10/03 07:31:55;;;;;;;14.37;12.93;;;16.10;1.00;;;;;;5088740;27;20470;-78
2021/10/03 07:34:22;;;;;;;16.17;14.47;;;16.10;1.00;;;;;;5102694;27;21244;-77
2021/10/03 07:36:49;;;;;;;15.20;13.63;;;16.20;1.00;;;;;;5101317;27;20442;-77
2021/10/03 07:39:17;;;;;;;14.80;13.40;;;16.20;1.00;;;;;;5102736;27;20462;-78
2021/10/03 07:41:47;;;;;;;14.43;13.10;;;16.30;1.00;;;;;;5103812;27;20449;-77
2021/10/03 07:44:14;;;;;;;15.87;14.33;;;16.40;1.00;;;;;;5083509;27;20524;-78
2021/10/03 07:46:40;;;;;;;14.37;12.87;;;16.50;1.00;;;;;;5109389;27;20469;-78
2021/10/03 07:49:07;;;;;;;16.50;14.87;;;16.50;1.00;;;;;;5111866;27;20466;-77
2021/10/03 07:51:34;;;;;;;13.83;12.43;;;16.40;1.00;;;;;;5109074;27;20456;-77
2021/10/03 07:54:00;;;;;;;16.07;14.37;;;16.50;1.00;;;;;;5101960;27;20457;-77
2021/10/03 07:56:28;;;;;;;13.83;12.63;;;16.50;1.00;;;;;;5093406;27;20445;-79
2021/10/03 07:58:55;;;;;;;15.53;14.13;;;16.60;1.00;;;;;;5106559;27;20453;-79
2021/10/03 08:01:23;;;;;;;15.13;13.83;;;16.70;1.00;;;;;;5113836;27;20961;-79
2021/10/03 08:03:50;;;;;;;15.07;13.57;;;16.70;1.00;;;;;;5111843;27;20447;-79
2021/10/03 08:06:17;;;;;;;15.27;13.13;;;16.70;1.00;;;;;;5107089;27;20435;-80
2021/10/03 08:08:44;;;;;;;14.17;12.97;;;16.70;1.00;;;;;;5116438;27;20529;-79
2021/10/03 08:11:11;;;;;;;15.07;13.67;;;16.70;1.00;;;;;;5112216;27;20521;-81
2021/10/03 08:13:44;;;;;;;14.03;12.83;;;16.80;1.00;;;;;;5116927;27;21081;-80
2021/10/03 08:16:11;;;;;;;14.30;13.00;;;16.80;1.00;;;;;;5117130;27;20459;-78
2021/10/03 08:18:38;;;;;;;14.80;12.37;;;16.80;1.00;;;;;;5114395;27;20562;-79
2021/10/03 08:21:05;;;;;;;13.70;12.30;;;16.90;1.00;;;;;;5118400;27;21782;-79
2021/10/03 08:23:32;;;;;;;14.50;12.17;;;17.00;1.00;;;;;;5114414;27;20464;-79
2021/10/03 08:25:59;;;;;;;13.97;12.67;;;16.90;1.00;;;;;;5119474;27;20419;-78
2021/10/03 08:28:26;;;;;;;16.53;14.90;;;17.00;1.00;;;;;;5128932;27;20429;-79
2021/10/03 08:30:54;;;;;;;15.17;12.37;;;17.10;1.00;;;;;;5120730;27;20543;-79
2021/10/03 08:33:21;;;;;;;14.20;12.60;;;17.20;1.00;;;;;;5113847;27;20461;-78
2021/10/03 08:35:48;;;;;;;14.40;13.00;;;17.30;1.00;;;;;;5115272;27;20432;-79
2021/10/03 08:38:15;;;;;;;13.40;12.10;;;17.30;1.00;;;;;;5116201;27;20486;-79
2021/10/03 08:40:41;;;;;;;13.80;12.60;;;17.20;1.00;;;;;;5115464;27;20461;-78
2021/10/03 08:43:08;;;;;;;13.67;12.33;;;17.20;1.00;;;;;;5108333;27;20482;-78
2021/10/03 08:45:37;;;;;;;13.13;11.83;;;17.30;1.00;;;;;;5113356;27;20451;-79
2021/10/03 08:48:07;;;;;;;13.83;12.57;;;17.30;1.00;;;;;;5116945;27;21397;-80
2021/10/03 08:50:34;;;;;;;13.33;12.13;;;17.40;1.00;;;;;;5112880;27;20452;-80
2021/10/03 08:53:00;;;;;;;13.43;12.20;;;17.60;1.00;;;;;;5115307;27;20615;-79
2021/10/03 08:55:27;;;;;;;14.13;12.63;;;17.70;1.00;;;;;;5113456;27;20436;-79
2021/10/03 08:57:54;;;;;;;15.27;13.87;;;17.70;1.00;;;;;;5115236;27;20464;-78
2021/10/03 09:00:23;;;;;;;14.33;13.07;;;17.70;1.00;;;;;;5111345;27;20965;-77
2021/10/03 09:03:01;;;;;;;13.17;12.00;;;17.70;1.00;;;;;;5115293;27;20462;-80
2021/10/03 09:05:31;;;;;;;14.03;12.73;;;17.80;1.00;;;;;;5115674;27;20428;-79
2021/10/03 09:08:04;;;;;;;13.77;12.37;;;17.90;1.00;;;;;;5106799;27;20491;-79
2021/10/03 09:10:46;;;;;;;13.60;12.30;;;18.00;1.00;;;;;;5111891;27;20447;-79
2021/10/03 09:13:13;;;;;;;14.07;12.77;;;18.10;1.00;;;;;;5106703;27;20456;-79
2021/10/03 09:15:40;;;;;;;14.27;12.80;;;18.20;1.00;;;;;;5089488;27;20900;-79
2021/10/03 09:18:08;;;;;;;13.73;12.43;;;18.20;1.00;;;;;;5109767;27;20450;-79
2021/10/03 09:20:37;;;;;;;12.67;11.57;;;18.50;1.00;;;;;;5110821;27;20460;-80
2021/10/03 09:23:07;;;;;;;13.37;12.13;;;18.70;1.00;;;;;;5111175;27;20455;-78
2021/10/03 09:25:41;;;;;;;13.87;12.57;;;18.80;1.00;;;;;;5118470;27;20448;-79
2021/10/03 09:28:10;;;;;;;13.53;12.00;;;18.90;1.00;;;;;;5117338;27;20429;-79
2021/10/03 09:30:51;;;;;;;13.33;12.23;;;19.00;1.00;;;;;;5116677;27;20453;-79
2021/10/03 09:33:18;;;;;;;13.67;12.30;;;18.90;1.00;;;;;;5116224;27;20491;-79
2021/10/03 09:35:57;;;;;;;13.17;11.97;;;18.90;1.00;;;;;;5117046;27;20457;-78
2021/10/03 09:38:25;;;;;;;13.43;12.20;;;18.90;1.00;;;;;;5121164;27;20417;-80
2021/10/03 09:41:03;;;;;;;13.40;12.27;;;18.90;1.00;;;;;;5116614;27;20462;-79
2021/10/03 09:43:41;;;;;;;14.10;12.80;;;18.80;1.00;;;;;;5106503;27;21375;-80
2021/10/03 09:46:08;;;;;;;13.70;12.30;;;18.70;1.00;;;;;;5113851;27;20445;-79
2021/10/03 09:48:49;;;;;;;13.47;12.13;;;18.90;1.00;;;;;;5126159;27;20456;-78
2021/10/03 09:51:18;;;;;;;12.93;11.90;;;19.10;1.00;;;;;;5120630;27;20541;-79
2021/10/03 09:53:45;;;;;;;13.30;12.13;;;19.20;1.00;;;;;;5114217;27;24392;-78
2021/10/03 09:56:14;;;;;;;13.07;11.87;;;19.50;1.00;;;;;;5096997;27;20458;-77
2021/10/03 09:58:41;;;;;;;13.30;12.10;;;20.00;1.00;;;;;;5110365;27;20449;-79
2021/10/03 10:01:09;;;;;;;12.50;11.20;;;20.20;1.00;;;;;;5108366;27;20449;-79
2021/10/03 10:03:38;;;;;;;12.30;11.20;;;20.30;1.00;;;;;;5112991;27;20458;-79
2021/10/03 10:06:04;;;;;;;12.20;11.10;;;20.40;1.00;;;;;;5110651;27;20451;-79
2021/10/03 10:08:34;;;;;;;12.07;10.97;;;20.50;1.00;;;;;;5109514;27;20473;-79
2021/10/03 10:11:09;;;;;;;12.27;11.17;;;20.70;1.00;;;;;;5111917;27;21899;-79
2021/10/03 10:13:38;;;;;;;12.07;11.00;;;21.00;1.00;;;;;;5122696;27;20419;-80
2021/10/03 10:16:28;;;;;;;10.93;10.03;;;21.30;1.00;;;;;;5125764;27;20428;-81
2021/10/03 10:19:26;;;;;;;12.30;11.20;;;21.50;1.00;;;;;;5115998;27;20466;-79
2021/10/03 10:22:38;;;;;;;12.10;10.93;;;21.60;1.00;;;;;;5112103;27;20464;-80
2021/10/03 10:25:22;;;;;;;12.37;11.37;;;21.60;1.00;;;;;;5114099;27;20463;-79
2021/10/03 10:28:04;;;;;;;12.33;11.33;;;21.70;1.00;;;;;;5117445;27;20425;-79
2021/10/03 10:30:31;;;;;;;12.13;11.03;;;21.80;1.00;;;;;;5116216;27;20483;-79
2021/10/03 10:33:14;;;;;;;11.20;10.20;;;22.10;1.00;;;;;;5111220;27;20769;-79
2021/10/03 10:35:42;;;;;;;12.00;10.90;;;22.30;1.00;;;;;;5115571;27;21443;-79
2021/10/03 10:38:16;;;;;;;12.17;11.17;;;22.70;1.00;;;;;;5106414;27;20443;-80
2021/10/03 10:40:45;;;;;;;10.87;9.97;;;23.10;1.00;;;;;;5113325;27;24403;-80
2021/10/03 10:43:44;;;;;;;12.07;10.97;;;23.60;1.00;;;;;;5109788;27;20530;-80
2021/10/03 10:46:46;;;;;;;11.47;10.57;;;24.30;1.00;;;;;;5119078;27;20472;-79
2021/10/03 10:49:33;;;;;;;12.37;10.80;;;24.10;1.00;;;;;;5118190;27;21371;-79
2021/10/03 10:52:29;;;;;;;11.87;10.67;;;24.00;1.00;;;;;;5112898;27;20558;-79
2021/10/03 10:55:24;;;;;;;11.80;10.60;;;24.30;1.00;;;;;;5114311;27;20512;-79
2021/10/03 10:58:13;;;;;;;11.60;10.50;;;25.10;1.00;;;;;;5117528;27;20500;-79
2021/10/03 11:01:06;;;;;;;11.37;10.40;;;25.80;1.00;;;;;;5115449;27;20406;-79
2021/10/03 11:03:59;;;;;;;11.33;10.23;;;26.30;1.00;;;;;;5114477;27;20463;-78
2021/10/03 11:06:55;;;;;;;11.67;10.50;;;27.10;1.00;;;;;;5110804;27;20441;-78
2021/10/03 11:09:22;;;;;;;10.77;9.67;;;27.50;1.00;;;;;;5108699;27;20475;-78
2021/10/03 11:12:04;;;;;;;10.40;9.40;;;28.20;1.00;;;;;;5119422;27;20454;-79
2021/10/03 11:14:33;;;;;;;10.67;9.60;;;28.80;1.00;;;;;;5115477;27;20467;-78
2021/10/03 11:17:02;;;;;;;9.70;8.60;;;29.40;1.00;;;;;;5110202;27;20433;-79
2021/10/03 11:19:48;;;;;;;9.97;8.97;;;29.90;1.00;;;;;;5117171;27;20461;-78
2021/10/03 11:22:21;;;;;;;12.20;10.40;;;31.00;1.00;;;;;;5115971;27;21375;-78
2021/10/03 11:24:50;;;;;;;9.80;9.00;;;31.80;1.00;;;;;;5110045;27;20448;-78
2021/10/03 11:27:19;;;;;;;10.77;9.60;;;31.60;1.00;;;;;;5110159;27;20509;-78
2021/10/03 11:29:48;;;;;;;9.50;8.70;;;31.60;1.00;;;;;;5117072;27;20474;-78
2021/10/03 11:32:17;;;;;;;11.37;10.27;;;31.70;1.00;;;;;;5109638;27;20454;-78
2021/10/03 11:34:45;;;;;;;9.50;8.80;;;32.00;1.00;;;;;;5124557;27;21736;-78
2021/10/03 11:37:14;;;;;;;9.33;8.63;;;32.40;1.00;;;;;;5115690;27;21558;-78
2021/10/03 11:39:48;;;;;;;9.23;8.47;;;32.80;1.00;;;;;;5108545;27;20448;-78
2021/10/03 11:42:19;;;;;;;10.37;9.20;;;32.70;1.00;;;;;;5107325;27;20454;-78
2021/10/03 11:44:47;;;;;;;9.33;8.53;;;32.50;1.00;;;;;;5108588;27;20455;-78
2021/10/03 11:47:17;;;;;;;8.60;7.90;;;32.30;1.00;;;;;;5100951;27;20420;-77
2021/10/03 11:49:46;;;;;;;9.00;8.20;;;32.90;1.00;;;;;;5105061;27;20417;-77
2021/10/03 11:52:27;;;;;;;8.63;7.93;;;33.10;1.00;;;;;;5109067;27;20462;-77
2021/10/03 11:55:01;;;;;;;9.40;8.60;;;33.80;1.00;;;;;;5107899;27;20464;-78
2021/10/03 11:57:28;;;;;;;9.03;8.23;;;35.00;1.00;;;;;;5122006;27;20458;-78
2021/10/03 12:00:09;;;;;;;8.70;8.03;;;35.50;1.00;;;;;;5114521;27;20428;-77
2021/10/03 12:02:38;;;;;;;7.97;7.40;;;35.40;1.00;;;;;;5105996;27;20436;-77
2021/10/03 12:05:06;;;;;;;8.70;8.00;;;35.30;1.00;;;;;;5098161;27;21098;-77
2021/10/03 12:07:33;;;;;;;10.07;9.17;;;34.90;1.00;;;;;;5106547;27;20461;-77
2021/10/03 12:10:02;;;;;;;8.57;7.80;;;34.50;1.00;;;;;;5096471;27;20460;-78
2021/10/03 12:12:59;;;;;;;8.63;7.93;;;33.60;1.00;;;;;;5094815;27;20700;-77
2021/10/03 12:15:45;;;;;;;9.67;8.97;;;33.30;1.00;;;;;;5093389;27;20451;-77
2021/10/03 12:18:14;;;;;;;9.50;8.70;;;32.90;1.00;;;;;;5097019;27;20455;-77
2021/10/03 12:20:52;;;;;;;8.43;7.73;;;32.10;1.00;;;;;;5107436;27;20498;-78
2021/10/03 12:23:20;;;;;;;10.17;9.30;;;31.50;1.00;;;;;;5104295;27;20497;-79
2021/10/03 12:25:50;;;;;;;8.00;7.20;;;30.90;1.00;;;;;;5105110;27;21403;-78
2021/10/03 12:28:18;;;;;;;9.53;8.70;;;30.20;1.00;;;;;;5103630;27;20439;-78
2021/10/03 12:30:48;;;;;;;9.10;8.40;;;29.70;1.00;;;;;;5096053;27;20466;-77
2021/10/03 12:33:15;;;;;;;8.40;7.70;;;29.60;1.00;;;;;;5094285;27;20461;-76
2021/10/03 12:35:57;;;;;;;10.10;7.73;;;29.60;1.00;;;;;;5097232;27;20520;-77
2021/10/03 12:38:24;;;;;;;10.10;8.77;;;29.60;1.00;;;;;;5104397;27;20927;-77
2021/10/03 12:40:51;;;;;;;8.80;8.10;;;29.40;1.00;;;;;;5109637;27;20456;-77
2021/10/03 12:43:17;;;;;;;11.57;8.53;;;29.10;1.00;;;;;;5087600;27;20457;-77
2021/10/03 12:45:46;;;;;;;8.70;7.90;;;28.70;1.00;;;;;;5105352;27;20458;-77
2021/10/03 12:48:14;;;;;;;8.83;8.00;;;28.20;1.00;;;;;;5103638;27;20439;-77
2021/10/03 12:50:41;;;;;;;8.43;7.73;;;27.80;1.00;;;;;;5093059;27;20469;-77